KDLH/DLH METAR and TAF weather

Enter ICAO airport designator
Station Type Date Time Source
KDLH METAR 2022/07/03 13:55 UTC NOAA

KDLH 031355Z 12006KT 10SM CLR 18/08 A3011 RMK AO2 SLP195 T01780083


Station Type Date Time Source
KDLH Decoded METAR 2022/07/03 13:55 UTC NOAA

Duluth, Duluth International Airport, MN, United States (KDLH) 46-50-34N 092-13-34W 435M
Jul 03, 2022 - 09:55 AM EDT / 2022.07.03 1355 UTC
Wind: from the ESE (120 degrees) at 7 MPH (6 KT):0
Visibility: 10 mile(s):0
Sky conditions: clear
Temperature: 64.0 F (17.8 C)
Dew Point: 46.9 F (8.3 C)
Relative Humidity: 53%
Pressure (altimeter): 30.11 in. Hg (1019 hPa)
ob: KDLH 031355Z 12006KT 10SM CLR 18/08 A3011 RMK AO2 SLP195 T01780083
cycle: 14

Station Type Date Time Source
KDLH TAF 2022/07/03 12:22 UTC NOAA

TAF KDLH 031120Z 0312/0412 12004KT P6SM FEW250
FM032000 13007KT P6SM VCSH BKN060
FM040500 10007KT 4SM -SHRA VCTS BKN015CB
FM040700 10006KT 4SM SHRA VCTS OVC008CB

Example: see airport list